Time;durP1;ratioP1;P1;durP2;ratioP2;P2;SDS_P1;SDS_P2;PMS_P1;PMS_P2;Temp;Humidity;BMP_temperature;BMP_pressure;BME280_temperature;BME280_humidity;BME280_pressure;Samples;Min_cycle;Max_cycle;Signal;HPM_P1;HPM_P2
2022/04/27 00:02:30;;;;;;;3.45;1.73;;;;;;;7.14;100.00;101971.06;6246299;28;20061;-72
2022/04/27 00:05:33;;;;;;;3.20;2.00;;;;;;;7.16;100.00;101964.03;6246997;28;20045;-72
2022/04/27 00:08:34;;;;;;;2.78;1.75;;;;;;;7.21;100.00;101968.28;6246865;28;20050;-72
2022/04/27 00:11:36;;;;;;;2.25;1.60;;;;;;;7.21;100.00;101965.66;6246008;28;20076;-72
2022/04/27 00:14:39;;;;;;;2.33;1.73;;;;;;;7.26;100.00;101965.56;6246625;28;20053;-72
2022/04/27 00:17:41;;;;;;;5.55;2.05;;;;;;;7.26;100.00;101963.81;6246878;28;20049;-72
2022/04/27 00:20:42;;;;;;;2.63;2.13;;;;;;;7.23;100.00;101963.03;6245076;28;20057;-72
2022/04/27 00:23:44;;;;;;;5.15;1.75;;;;;;;7.22;100.00;101962.16;6246762;28;20049;-72
2022/04/27 00:26:46;;;;;;;1.98;1.55;;;;;;;7.22;100.00;101962.16;6246537;28;20092;-72
2022/04/27 00:29:48;;;;;;;2.15;1.30;;;;;;;7.21;100.00;101964.78;6246417;28;20053;-72
2022/04/27 00:32:49;;;;;;;5.75;1.95;;;;;;;7.23;100.00;101960.41;6246016;28;20452;-72
2022/04/27 00:35:51;;;;;;;3.22;1.98;;;;;;;7.28;100.00;101966.41;6246262;28;20046;-72
2022/04/27 00:38:52;;;;;;;2.00;1.40;;;;;;;7.30;100.00;101968.09;6246536;28;20053;-72
2022/04/27 00:42:02;;;;;;;3.17;1.42;;;;;;;7.23;100.00;101969.13;6245269;28;20056;-72
2022/04/27 00:45:06;;;;;;;5.43;1.58;;;;;;;7.23;100.00;101971.72;6246433;28;20053;-73
2022/04/27 00:48:09;;;;;;;2.20;1.60;;;;;;;7.17;100.00;101976.19;6246051;28;20140;-72
2022/04/27 00:51:13;;;;;;;4.28;1.60;;;;;;;7.09;100.00;101974.63;6245881;28;20103;-72
2022/04/27 00:54:16;;;;;;;2.35;1.20;;;;;;;7.09;100.00;101969.38;6246008;28;20057;-72
2022/04/27 00:57:17;;;;;;;2.75;1.77;;;;;;;7.12;100.00;101961.47;6246373;28;20049;-72
2022/04/27 01:00:20;;;;;;;3.72;1.83;;;;;;;7.15;100.00;101978.00;6245388;28;20409;-72
2022/04/27 01:03:21;;;;;;;4.47;1.85;;;;;;;7.15;100.00;101978.00;6246263;28;20049;-72
2022/04/27 01:06:23;;;;;;;5.78;2.08;;;;;;;7.17;100.00;101978.81;6245762;28;20049;-73
2022/04/27 01:09:25;;;;;;;5.72;1.70;;;;;;;7.02;100.00;101983.44;6244617;28;20053;-72
2022/04/27 01:12:28;;;;;;;2.55;1.42;;;;;;;6.95;100.00;101986.19;6245078;28;20072;-72
2022/04/27 01:15:33;;;;;;;5.47;2.20;;;;;;;6.85;100.00;101991.59;6245669;28;20042;-72
2022/04/27 01:18:34;;;;;;;1.60;1.40;;;;;;;6.73;100.00;101985.75;6246056;28;20049;-72
2022/04/27 01:21:37;;;;;;;3.25;1.83;;;;;;;6.79;100.00;101991.72;6245421;28;20049;-72
2022/04/27 01:24:40;;;;;;;5.28;1.77;;;;;;;6.78;100.00;102000.44;6246249;28;20041;-72
2022/04/27 01:27:42;;;;;;;5.35;2.30;;;;;;;6.72;100.00;101999.66;6245686;28;20053;-72
2022/04/27 01:30:44;;;;;;;4.45;1.42;;;;;;;6.68;100.00;102001.50;6245357;28;20060;-72
2022/04/27 01:33:46;;;;;;;3.00;1.55;;;;;;;6.62;100.00;101996.34;6248973;28;20050;-72
2022/04/27 01:36:50;;;;;;;4.18;1.80;;;;;;;6.60;100.00;102003.38;6250334;28;20054;-72
2022/04/27 01:39:52;;;;;;;10.25;2.00;;;;;;;6.67;100.00;102006.72;6249662;28;20650;-72
2022/04/27 01:42:54;;;;;;;2.17;1.52;;;;;;;6.65;100.00;102009.38;6249712;28;20057;-72
2022/04/27 01:45:55;;;;;;;3.75;1.60;;;;;;;6.70;100.00;102010.16;6249975;28;20447;-72
2022/04/27 01:48:57;;;;;;;3.95;1.95;;;;;;;6.77;100.00;102005.72;6250245;28;20053;-72
2022/04/27 01:55:19;;;;;;;2.80;1.58;;;;;;;6.74;100.00;102010.97;6249642;28;20459;-72
2022/04/27 01:58:22;;;;;;;4.75;1.77;;;;;;;6.78;100.00;102017.88;6249688;28;20049;-72
2022/04/27 02:01:25;;;;;;;4.65;1.92;;;;;;;6.79;100.00;102017.84;6249146;28;20049;-72
2022/04/27 02:04:26;;;;;;;3.63;1.60;;;;;;;6.68;100.00;102022.38;6249474;28;20052;-72
2022/04/27 02:07:29;;;;;;;2.38;1.50;;;;;;;6.64;100.00;102023.31;6249662;28;20065;-72
2022/04/27 02:10:30;;;;;;;3.47;1.60;;;;;;;6.67;100.00;102020.63;6248795;28;20049;-72
2022/04/27 02:13:33;;;;;;;4.57;2.22;;;;;;;6.69;100.00;102028.47;6249332;28;20049;-72
2022/04/27 02:16:36;;;;;;;9.70;1.98;;;;;;;6.68;100.00;102019.78;6249233;28;20127;-72
2022/04/27 02:19:38;;;;;;;14.68;2.25;;;;;;;6.62;100.00;102040.75;6248962;28;20060;-72
2022/04/27 02:22:41;;;;;;;4.40;2.55;;;;;;;6.57;100.00;102033.00;6248726;28;20549;-72
2022/04/27 02:25:42;;;;;;;5.57;1.98;;;;;;;6.60;100.00;102037.31;6249070;28;20053;-73
2022/04/27 02:28:43;;;;;;;3.42;1.58;;;;;;;6.65;100.00;102048.56;6249095;28;20045;-72
2022/04/27 02:31:45;;;;;;;6.30;2.63;;;;;;;6.66;100.00;102038.97;6248172;28;20053;-72
2022/04/27 02:34:46;;;;;;;3.80;2.00;;;;;;;6.58;100.00;102042.56;6248854;28;20051;-72
2022/04/27 02:37:49;;;;;;;3.97;1.77;;;;;;;6.58;100.00;102045.16;6248550;28;20520;-72
2022/04/27 02:40:50;;;;;;;2.15;1.60;;;;;;;6.68;100.00;102045.91;6248171;28;20057;-72
2022/04/27 02:43:51;;;;;;;2.35;1.58;;;;;;;6.74;100.00;102045.78;6248103;28;20050;-72
2022/04/27 02:46:53;;;;;;;2.72;1.88;;;;;;;6.75;100.00;102050.13;6249047;28;20072;-72
2022/04/27 02:53:14;;;;;;;2.88;1.75;;;;;;;6.91;100.00;102045.50;6247887;28;20049;-72
2022/04/27 02:56:15;;;;;;;3.45;1.95;;;;;;;6.88;100.00;102045.56;6248462;28;20504;-72
2022/04/27 02:59:17;;;;;;;3.25;1.65;;;;;;;6.85;100.00;102053.44;6248119;28;20056;-72
2022/04/27 03:02:18;;;;;;;4.10;1.80;;;;;;;6.84;100.00;102064.78;6247386;28;20050;-72
2022/04/27 03:05:20;;;;;;;5.03;1.90;;;;;;;6.91;100.00;102055.97;6245274;28;20061;-72
2022/04/27 03:08:22;;;;;;;2.15;1.58;;;;;;;6.88;100.00;102052.53;6238661;28;20045;-72
2022/04/27 03:11:24;;;;;;;5.30;1.80;;;;;;;6.80;100.00;102061.34;6241447;28;20049;-73
2022/04/27 03:14:25;;;;;;;6.07;2.55;;;;;;;6.77;100.00;102055.34;6247946;28;20060;-72
2022/04/27 03:17:26;;;;;;;2.13;1.67;;;;;;;6.73;100.00;102064.13;6247811;28;20060;-72
2022/04/27 03:20:28;;;;;;;4.05;1.70;;;;;;;6.65;100.00;102061.63;6246857;28;20055;-72
2022/04/27 03:23:31;;;;;;;5.20;2.03;;;;;;;6.55;100.00;102058.28;6247490;28;20056;-72
2022/04/27 03:26:32;;;;;;;7.05;3.65;;;;;;;6.50;100.00;102067.09;6247498;28;20053;-72
2022/04/27 03:29:34;;;;;;;3.35;2.03;;;;;;;6.48;100.00;102067.09;6247703;28;20049;-72
2022/04/27 03:32:35;;;;;;;3.85;2.00;;;;;;;6.52;100.00;102062.69;6246451;28;20053;-72
2022/04/27 03:35:36;;;;;;;3.38;1.73;;;;;;;6.53;100.00;102062.66;6247462;28;20077;-72
2022/04/27 03:38:39;;;;;;;5.30;1.98;;;;;;;6.50;100.00;102067.94;6247224;28;20053;-72
2022/04/27 03:41:40;;;;;;;6.65;2.63;;;;;;;6.50;100.00;102075.78;6246790;28;20052;-72
2022/04/27 03:44:42;;;;;;;8.00;2.13;;;;;;;6.44;100.00;102077.59;6247357;28;20060;-72
2022/04/27 03:47:43;;;;;;;3.95;2.05;;;;;;;6.35;100.00;102076.84;6247484;28;20046;-72
2022/04/27 03:50:44;;;;;;;3.08;1.88;;;;;;;6.39;100.00;102085.50;6246449;28;20060;-72
2022/04/27 03:53:47;;;;;;;2.78;1.90;;;;;;;6.37;100.00;102089.03;6247079;28;20060;-72
2022/04/27 03:56:48;;;;;;;4.05;2.38;;;;;;;6.31;100.00;102088.25;6246058;28;20052;-72
2022/04/27 03:59:50;;;;;;;3.83;2.15;;;;;;;6.29;100.00;102091.75;6246529;28;20076;-72
2022/04/27 04:02:51;;;;;;;2.95;1.88;;;;;;;6.28;100.00;102093.50;6246554;28;20054;-72
2022/04/27 04:05:53;;;;;;;2.90;1.98;;;;;;;6.24;100.00;102098.78;6246790;28;20386;-72
2022/04/27 04:08:55;;;;;;;5.05;2.30;;;;;;;6.23;100.00;102100.53;6247042;28;20077;-72
2022/04/27 04:11:56;;;;;;;3.33;1.83;;;;;;;6.29;100.00;102102.19;6245908;28;20053;-72
2022/04/27 04:14:58;;;;;;;4.97;2.30;;;;;;;6.38;100.00;102107.28;6247044;28;20485;-72
2022/04/27 04:17:59;;;;;;;5.10;2.40;;;;;;;6.40;100.00;102109.88;6246632;28;20049;-72
2022/04/27 04:21:00;;;;;;;4.80;2.38;;;;;;;6.46;100.00;102115.88;6246124;28;20053;-72
2022/04/27 04:24:04;;;;;;;4.40;2.33;;;;;;;6.50;100.00;102119.31;6246652;28;20057;-72
2022/04/27 04:30:24;;;;;;;3.13;1.88;;;;;;;6.72;100.00;102125.94;6245956;28;20084;-72
2022/04/27 04:33:26;;;;;;;4.25;2.35;;;;;;;6.71;100.00;102129.44;6246645;28;20251;-72
2022/04/27 04:36:27;;;;;;;4.90;2.35;;;;;;;6.70;100.00;102134.69;6246241;28;20411;-72
2022/04/27 04:39:30;;;;;;;5.35;2.38;;;;;;;6.78;100.00;102127.59;6246518;28;20049;-72
2022/04/27 04:42:33;;;;;;;3.50;1.77;;;;;;;6.89;100.00;102136.13;6245822;28;20128;-72
2022/04/27 04:45:35;;;;;;;4.07;2.30;;;;;;;6.93;100.00;102132.56;6246257;28;20045;-72
2022/04/27 04:48:36;;;;;;;8.60;2.60;;;;;;;6.99;100.00;102136.84;6246545;28;20409;-72
2022/04/27 04:51:38;;;;;;;2.95;1.60;;;;;;;7.02;100.00;102139.41;6245554;28;20046;-72
2022/04/27 04:54:40;;;;;;;3.90;2.53;;;;;;;6.91;100.00;102146.56;6246433;28;20076;-72
2022/04/27 04:57:42;;;;;;;7.95;2.40;;;;;;;6.93;100.00;102155.22;6246455;28;20053;-72
2022/04/27 05:00:45;;;;;;;5.57;2.25;;;;;;;6.93;100.00;102158.72;6245411;28;20061;-72
2022/04/27 05:03:46;;;;;;;3.58;2.28;;;;;;;6.91;100.00;102160.50;6246098;28;20065;-72
2022/04/27 05:06:48;;;;;;;3.05;1.83;;;;;;;6.91;100.00;102173.56;6245959;28;20050;-72
2022/04/27 05:09:51;;;;;;;9.27;2.17;;;;;;;6.84;100.00;102177.13;6250532;28;20061;-72
2022/04/27 05:12:52;;;;;;;3.50;1.90;;;;;;;6.86;100.00;102176.25;6250007;28;20493;-72
2022/04/27 05:15:53;;;;;;;3.72;1.90;;;;;;;6.86;100.00;102178.00;6250646;28;20042;-72
2022/04/27 05:18:55;;;;;;;5.57;2.35;;;;;;;6.88;100.00;102183.19;6250260;28;20045;-72
2022/04/27 05:21:56;;;;;;;2.63;1.90;;;;;;;6.86;100.00;102184.09;6249697;28;20519;-72
2022/04/27 05:25:01;;;;;;;5.15;2.20;;;;;;;6.88;100.00;102188.41;6250360;28;20050;-72
2022/04/27 05:28:03;;;;;;;7.70;2.42;;;;;;;6.88;100.00;102197.13;6250844;28;20042;-72
2022/04/27 05:34:22;;;;;;;13.18;2.85;;;;;;;7.04;100.00;102214.31;6229203;28;20050;-72
2022/04/27 05:37:24;;;;;;;4.78;2.13;;;;;;;7.10;100.00;102203.75;6250169;28;20497;-72
2022/04/27 05:40:27;;;;;;;3.92;2.17;;;;;;;7.20;100.00;102211.44;6249592;28;20071;-72
2022/04/27 05:43:28;;;;;;;4.20;2.50;;;;;;;7.22;100.00;102209.66;6249506;28;20057;-72
2022/04/27 05:46:29;;;;;;;3.55;2.28;;;;;;;7.24;100.00;102215.75;6250171;28;20050;-73
2022/04/27 05:49:31;;;;;;;5.40;2.28;;;;;;;7.38;100.00;102208.53;6249832;28;20053;-72
2022/04/27 05:52:44;;;;;;;4.75;1.95;;;;;;;7.57;100.00;102215.16;6249452;28;20049;-72
2022/04/27 05:55:47;;;;;;;6.45;2.65;;;;;;;7.66;100.00;102215.91;6249730;28;20125;-72
2022/04/27 05:58:48;;;;;;;8.35;2.65;;;;;;;7.62;100.00;102222.94;6249963;28;20550;-72
2022/04/27 06:01:50;;;;;;;6.45;2.25;;;;;;;7.56;100.00;102228.28;6248922;28;20056;-72
2022/04/27 06:04:51;;;;;;;4.75;2.67;;;;;;;7.53;100.00;102226.56;6249500;28;20056;-72
2022/04/27 06:07:52;;;;;;;6.28;2.58;;;;;;;7.59;100.00;102226.50;6249797;28;20056;-72
2022/04/27 06:10:55;;;;;;;7.78;2.35;;;;;;;7.73;100.00;102230.63;6248692;28;20092;-72
2022/04/27 06:13:56;;;;;;;8.65;3.17;;;;;;;7.70;100.00;102241.13;6249210;28;20092;-72
2022/04/27 06:16:58;;;;;;;3.40;2.40;;;;;;;7.78;100.00;102241.88;6249369;28;20489;-72
2022/04/27 06:19:59;;;;;;;4.35;2.13;;;;;;;7.68;100.00;102241.16;6248080;28;20050;-73
2022/04/27 06:23:00;;;;;;;5.78;2.53;;;;;;;7.62;100.00;102246.50;6248659;28;20049;-72
2022/04/27 06:26:05;;;;;;;6.03;2.97;;;;;;;7.52;100.00;102245.78;6249298;28;20049;-72
2022/04/27 06:29:06;;;;;;;9.20;3.38;;;;;;;7.42;100.00;102251.19;6248864;28;20424;-72
2022/04/27 06:32:08;;;;;;;6.53;2.65;;;;;;;7.36;100.00;102262.63;6248294;28;20053;-72
2022/04/27 06:35:13;;;;;;;4.47;3.05;;;;;;;7.39;100.00;102257.34;6248627;28;20053;-72
2022/04/27 06:38:14;;;;;;;5.18;2.58;;;;;;;7.44;100.00;102265.97;6248691;28;20079;-72
2022/04/27 06:41:17;;;;;;;6.15;2.97;;;;;;;7.37;100.00;102262.59;6248070;28;20049;-72
2022/04/27 06:44:18;;;;;;;9.48;4.15;;;;;;;7.37;100.00;102265.22;6248602;28;20049;-72
2022/04/27 06:47:19;;;;;;;9.20;2.85;;;;;;;7.31;100.00;102260.09;6248792;28;20046;-72
2022/04/27 06:50:21;;;;;;;6.05;2.50;;;;;;;7.25;100.00;102273.22;6242097;28;20049;-72
2022/04/27 06:53:22;;;;;;;5.50;2.67;;;;;;;7.21;100.00;102275.91;6235893;28;20045;-72
2022/04/27 06:56:25;;;;;;;4.20;2.65;;;;;;;7.17;100.00;102280.31;6235112;28;20045;-72
2022/04/27 06:59:26;;;;;;;8.02;3.22;;;;;;;7.16;100.00;102280.34;6233379;28;20057;-72
2022/04/27 07:02:28;;;;;;;4.28;2.10;;;;;;;7.17;100.00;102277.69;6234924;28;20744;-72
2022/04/27 07:05:29;;;;;;;8.75;2.92;;;;;;;7.25;100.00;102281.06;6233896;28;20045;-72
2022/04/27 07:08:31;;;;;;;9.15;3.30;;;;;;;7.28;100.00;102294.13;6241434;28;20038;-72
2022/04/27 07:11:34;;;;;;;7.47;3.47;;;;;;;7.38;100.00;102287.84;6235346;28;20057;-72
2022/04/27 07:14:35;;;;;;;6.20;2.95;;;;;;;7.43;100.00;102294.75;6237174;28;20056;-72
2022/04/27 07:17:36;;;;;;;6.15;2.90;;;;;;;7.48;100.00;102296.41;6234493;28;20723;-72
2022/04/27 07:20:39;;;;;;;6.75;3.03;;;;;;;7.49;100.00;102299.88;6237254;28;20046;-72
2022/04/27 07:23:40;;;;;;;9.05;3.15;;;;;;;7.57;100.00;102304.13;6247564;28;20060;-72
2022/04/27 07:26:43;;;;;;;5.43;2.50;;;;;;;7.66;100.00;102302.25;6242118;28;20056;-72
2022/04/27 07:29:44;;;;;;;6.47;2.47;;;;;;;7.78;100.00;102300.31;6245814;28;20049;-72
2022/04/27 07:32:47;;;;;;;6.60;3.25;;;;;;;7.87;98.20;102307.13;6242110;28;20052;-72
2022/04/27 07:35:48;;;;;;;7.40;2.10;;;;;;;8.08;97.15;102312.00;6244054;28;20045;-72
2022/04/27 07:38:49;;;;;;;4.25;2.20;;;;;;;8.17;96.35;102310.94;6242898;28;20508;-72
2022/04/27 07:41:52;;;;;;;6.55;1.88;;;;;;;8.26;94.40;102321.25;6245484;28;20049;-72
2022/04/27 07:44:53;;;;;;;3.35;1.42;;;;;;;8.30;91.38;102325.56;6246745;28;20049;-72
2022/04/27 07:47:55;;;;;;;2.72;1.17;;;;;;;8.34;91.13;102326.38;6247306;28;20049;-71
2022/04/27 07:50:56;;;;;;;2.15;1.55;;;;;;;8.38;91.94;102318.44;6226099;28;20398;-72
2022/04/27 07:53:58;;;;;;;4.40;1.67;;;;;;;8.45;90.75;102328.81;6222575;28;20076;-72
2022/04/27 07:57:00;;;;;;;12.10;2.03;;;;;;;8.48;88.40;102336.63;6246518;28;20413;-72
2022/04/27 08:00:06;;;;;;;11.57;2.15;;;;;;;8.50;88.74;102332.22;6246152;28;20056;-73
2022/04/27 08:03:08;;;;;;;3.38;1.35;;;;;;;8.53;88.59;102329.53;6245919;28;20076;-71
2022/04/27 08:06:09;;;;;;;3.20;1.73;;;;;;;8.59;89.68;102326.81;6241584;28;20053;-72
2022/04/27 08:09:10;;;;;;;2.53;1.58;;;;;;;8.73;91.22;102334.41;6219908;28;20490;-72
2022/04/27 08:12:13;;;;;;;4.70;1.45;;;;;;;8.80;86.71;102339.47;6220719;28;20054;-72
2022/04/27 08:15:15;;;;;;;1.73;1.33;;;;;;;8.84;85.64;102337.66;6222017;28;20609;-72
2022/04/27 08:18:16;;;;;;;9.02;1.55;;;;;;;8.93;85.35;102336.59;6222759;28;20037;-72
2022/04/27 08:21:21;;;;;;;3.55;1.85;;;;;;;8.99;85.12;102333.84;6245481;28;20052;-72
2022/04/27 08:24:24;;;;;;;3.38;1.65;;;;;;;9.05;85.67;102333.72;6244762;28;20056;-72
2022/04/27 08:27:27;;;;;;;5.38;1.15;;;;;;;9.11;82.71;102336.19;6246483;28;20053;-72
2022/04/27 08:30:28;;;;;;;3.05;1.63;;;;;;;9.12;83.51;102344.03;6244942;28;20462;-72
2022/04/27 08:33:30;;;;;;;8.38;1.63;;;;;;;9.11;84.52;102350.19;6243120;28;20053;-72
2022/04/27 08:36:31;;;;;;;2.40;1.50;;;;;;;9.11;84.53;102337.06;6243081;28;20041;-72
2022/04/27 08:39:32;;;;;;;4.28;1.67;;;;;;;9.19;85.12;102338.66;6246189;28;20046;-72
2022/04/27 08:42:35;;;;;;;2.15;1.60;;;;;;;9.27;85.82;102339.38;6247439;28;20061;-72
2022/04/27 08:45:36;;;;;;;3.20;1.63;;;;;;;9.39;83.46;102347.81;6251401;28;20049;-72
2022/04/27 08:48:38;;;;;;;2.75;1.65;;;;;;;9.44;83.21;102346.84;6251395;28;20409;-74
2022/04/27 08:51:39;;;;;;;5.88;1.70;;;;;;;9.44;80.62;102355.56;6250375;28;20055;-73
2022/04/27 08:54:41;;;;;;;2.78;1.73;;;;;;;9.45;81.26;102353.81;6251469;28;20156;-72
2022/04/27 08:57:44;;;;;;;5.63;2.25;;;;;;;9.43;81.02;102345.13;6250823;28;20045;-73
2022/04/27 09:00:46;;;;;;;8.18;2.22;;;;;;;9.39;80.19;102349.56;6250452;28;20057;-73
2022/04/27 09:03:47;;;;;;;3.40;1.60;;;;;;;9.48;80.22;102356.38;6250763;28;20061;-73
2022/04/27 09:06:49;;;;;;;2.58;1.60;;;;;;;9.57;81.77;102353.53;6245697;28;20504;-73
2022/04/27 09:09:50;;;;;;;4.70;1.55;;;;;;;9.66;81.91;102342.81;6250501;28;20049;-72
2022/04/27 09:12:55;;;;;;;2.95;2.33;;;;;;;9.83;81.22;102345.03;6248995;28;20424;-73
2022/04/27 09:16:01;;;;;;;3.22;1.80;;;;;;;9.94;81.66;102353.50;6246384;28;20050;-73
2022/04/27 09:22:21;;;;;;;6.03;2.03;;;;;;;10.07;78.70;102354.91;6247537;28;20061;-72
2022/04/27 09:25:30;;;;;;;5.18;2.38;;;;;;;10.10;77.13;102368.00;6247817;28;20045;-72
2022/04/27 09:28:34;;;;;;;;;;;;;;;10.05;77.32;102356.75;6249163;28;20053;-70
2022/04/27 09:31:35;;;;;;;7.32;2.30;;;;;;;10.13;77.67;102359.19;6248118;28;19944;-72
2022/04/27 09:34:44;;;;;;;5.45;2.25;;;;;;;10.27;76.81;102364.97;6247295;28;20050;-73
2022/04/27 09:37:45;;;;;;;3.97;2.23;;;;;;;10.30;76.35;102356.97;6249528;28;20128;-73
2022/04/27 09:40:48;;;;;;;5.07;2.20;;;;;;;10.45;76.92;102365.41;6240475;28;20050;-73
2022/04/27 09:43:51;;;;;;;3.72;2.30;;;;;;;10.67;76.35;102358.63;6242156;28;20052;-70
2022/04/27 09:46:53;;;;;;;3.80;1.85;;;;;;;10.93;74.16;102352.63;6250034;28;20042;-70
2022/04/27 09:49:56;;;;;;;6.07;2.33;;;;;;;11.03;71.68;102355.84;6249358;28;20493;-70
2022/04/27 09:52:58;;;;;;;6.45;2.53;;;;;;;10.87;71.86;102358.94;6249188;28;20057;-71
2022/04/27 09:56:01;;;;;;;6.03;2.47;;;;;;;10.83;71.08;102365.19;6247513;28;20049;-70
2022/04/27 09:59:06;;;;;;;5.20;2.30;;;;;;;10.97;71.32;102351.63;6247627;28;20048;-71
2022/04/27 10:02:09;;;;;;;2.70;1.90;;;;;;;10.96;69.84;102354.31;6248642;28;20060;-70
2022/04/27 10:05:11;;;;;;;4.35;2.40;;;;;;;10.98;71.14;102350.72;6249475;28;20488;-70
2022/04/27 10:08:13;;;;;;;7.88;2.47;;;;;;;11.21;70.89;102352.66;6249438;28;20049;-72
2022/04/27 10:11:14;;;;;;;6.20;1.83;;;;;;;11.18;68.05;102340.47;6248559;28;20080;-70
2022/04/27 10:14:18;;;;;;;4.68;2.20;;;;;;;11.00;67.43;102351.56;6249105;28;20057;-70
2022/04/27 10:17:19;;;;;;;3.80;2.17;;;;;;;11.03;67.95;102353.22;6249346;28;20052;-70
2022/04/27 10:20:28;;;;;;;4.00;2.25;;;;;;;11.06;69.22;102337.34;6248404;28;20049;-70
2022/04/27 10:23:32;;;;;;;4.32;2.40;;;;;;;11.36;71.28;102341.69;6249376;28;20492;-71
2022/04/27 10:26:33;;;;;;;3.28;1.88;;;;;;;11.67;67.74;102344.22;6248768;28;20061;-70
2022/04/27 10:29:36;;;;;;;2.55;2.00;;;;;;;11.62;63.13;102342.63;6248988;28;20069;-71
2022/04/27 10:32:39;;;;;;;4.07;1.98;;;;;;;11.64;65.09;102336.41;6247981;28;20546;-70
2022/04/27 10:35:41;;;;;;;3.10;2.00;;;;;;;11.79;65.62;102334.19;6247287;28;20056;-72
2022/04/27 10:38:42;;;;;;;7.75;2.15;;;;;;;11.89;63.83;102333.84;6248467;28;20049;-71
2022/04/27 10:41:49;;;;;;;4.57;2.38;;;;;;;11.87;63.87;102334.81;6246054;28;20049;-71
2022/04/27 10:45:09;;;;;;;10.77;3.15;;;;;;;11.84;66.02;102334.91;6248818;28;20053;-72
2022/04/27 10:48:16;;;;;;;4.10;2.63;;;;;;;12.13;66.37;102326.03;6246207;28;20052;-76
2022/04/27 10:51:17;;;;;;;3.60;2.15;;;;;;;12.28;63.38;102338.69;6247661;28;20191;-71
2022/04/27 10:54:26;;;;;;;3.05;2.03;;;;;;;12.37;62.09;102341.00;6248086;28;20053;-71
2022/04/27 10:57:41;;;;;;;4.22;1.80;;;;;;;12.35;63.97;102323.50;6248328;28;20045;-70
2022/04/27 11:01:22;;;;;;;3.33;2.10;;;;;;;12.60;63.13;102319.06;6247377;28;20489;-73
2022/04/27 11:04:33;;;;;;;4.10;2.30;;;;;;;12.73;60.31;102319.50;6247747;28;20367;-70
2022/04/27 11:07:38;;;;;;;2.95;2.17;;;;;;;12.86;62.85;102319.91;6248117;28;20064;-71
2022/04/27 11:10:41;;;;;;;4.18;1.90;;;;;;;13.29;62.13;102318.25;6247270;28;20056;-70
2022/04/27 11:13:43;;;;;;;3.50;1.95;;;;;;;13.46;57.46;102318.47;6248249;28;20060;-74
2022/04/27 11:16:47;;;;;;;8.07;2.90;;;;;;;13.66;57.00;102318.50;6247808;28;20053;-73
2022/04/27 11:19:50;;;;;;;3.47;1.95;;;;;;;13.92;57.91;102319.19;6247560;28;20382;-73
2022/04/27 11:22:51;;;;;;;4.72;2.00;;;;;;;14.16;57.57;102317.28;6247171;28;20053;-73
2022/04/27 11:25:53;;;;;;;5.28;2.83;;;;;;;14.28;55.98;102318.56;6247767;28;20060;-72
2022/04/27 11:28:55;;;;;;;3.08;2.00;;;;;;;14.57;55.52;102319.94;6247618;28;20045;-72
2022/04/27 11:31:56;;;;;;;2.78;2.13;;;;;;;15.20;54.17;102324.03;6246665;28;20060;-73
2022/04/27 11:34:59;;;;;;;3.28;2.03;;;;;;;15.76;50.29;102329.31;6247568;28;20053;-74
2022/04/27 11:38:00;;;;;;;4.13;2.30;;;;;;;16.62;47.03;102313.38;6247312;28;20052;-71
2022/04/27 11:41:02;;;;;;;4.13;2.20;;;;;;;16.56;46.18;102304.88;6244342;28;20058;-74
2022/04/27 11:44:04;;;;;;;2.83;1.55;;;;;;;16.60;49.96;102314.38;6246465;28;20560;-71
2022/04/27 11:47:05;;;;;;;2.20;2.00;;;;;;;16.78;48.28;102308.09;6245131;28;20045;-71
2022/04/27 11:50:09;;;;;;;3.88;2.05;;;;;;;17.11;44.43;102307.19;6244201;28;20049;-70
2022/04/27 11:53:12;;;;;;;4.20;2.63;;;;;;;17.70;45.75;102306.41;6241247;28;20045;-70
2022/04/27 11:56:14;;;;;;;3.40;1.80;;;;;;;18.25;43.60;102308.47;6245569;28;20052;-70
2022/04/27 11:59:15;;;;;;;1.83;1.10;;;;;;;18.64;40.13;102300.81;6247029;28;20413;-71
2022/04/27 12:02:22;;;;;;;1.85;1.45;;;;;;;18.61;39.96;102298.31;6245891;28;20042;-71
2022/04/27 12:05:32;;;;;;;3.92;1.60;;;;;;;18.34;41.65;102303.53;6244143;28;20132;-71
2022/04/27 12:08:36;;;;;;;5.60;2.40;;;;;;;17.78;41.32;102299.84;6242329;28;20125;-70
2022/04/27 12:11:37;;;;;;;1.27;1.08;;;;;;;18.27;42.44;102295.09;6245239;28;20054;-71
2022/04/27 12:14:39;;;;;;;1.88;1.42;;;;;;;18.57;40.15;102286.16;6245487;28;20420;-71
2022/04/27 12:17:49;;;;;;;1.85;1.48;;;;;;;18.19;42.31;102287.56;6245323;28;20054;-72
2022/04/27 12:20:55;;;;;;;2.75;1.52;;;;;;;18.85;39.16;102288.84;6236223;28;20054;-70
2022/04/27 12:23:56;;;;;;;3.78;1.60;;;;;;;18.91;39.63;102287.59;6221904;28;20050;-71
2022/04/27 12:26:58;;;;;;;3.38;1.98;;;;;;;18.81;39.28;102286.47;6222319;28;20058;-72
2022/04/27 12:30:05;;;;;;;2.95;1.70;;;;;;;18.97;39.79;102285.38;6236544;28;20046;-72
2022/04/27 12:33:06;;;;;;;2.17;1.45;;;;;;;19.87;36.20;102296.38;6246273;28;20049;-71
2022/04/27 12:39:39;;;;;;;1.48;1.33;;;;;;;19.04;37.70;102285.84;6243234;28;20046;-72
2022/04/27 12:43:02;;;;;;;6.15;1.60;;;;;;;18.66;38.63;102286.44;6243874;28;20055;-72
2022/04/27 12:46:06;;;;;;;2.63;1.35;;;;;;;18.84;37.19;102291.59;6245971;28;20424;-70
2022/04/27 12:49:08;;;;;;;4.43;1.33;;;;;;;18.90;37.84;102280.56;6246265;28;20049;-71
2022/04/27 12:52:20;;;;;;;6.72;2.17;;;;;;;19.30;36.84;102278.78;6245762;28;20058;-72
2022/04/27 12:55:21;;;;;;;2.00;1.40;;;;;;;20.00;37.30;102282.09;6237905;28;20050;-72
2022/04/27 12:58:24;;;;;;;2.60;1.08;;;;;;;20.52;37.00;102280.31;6221857;28;20053;-73
2022/04/27 13:01:29;;;;;;;1.65;1.38;;;;;;;20.26;36.74;102279.47;6220976;28;20093;-71
2022/04/27 13:04:31;;;;;;;2.35;1.73;;;;;;;20.62;34.60;102277.81;6221868;28;20046;-72
2022/04/27 13:07:33;;;;;;;3.17;1.48;;;;;;;20.70;33.75;102275.47;6221559;28;20481;-72
2022/04/27 13:13:54;;;;;;;3.08;1.73;;;;;;;21.10;33.99;102268.09;6245304;28;20050;-71
2022/04/27 13:16:56;;;;;;;5.47;1.50;;;;;;;21.03;33.07;102264.16;6246026;28;20049;-72
2022/04/27 13:19:58;;;;;;;3.10;1.77;;;;;;;20.31;34.19;102265.78;6245525;28;20682;-72
2022/04/27 13:23:01;;;;;;;2.78;1.45;;;;;;;20.73;33.70;102264.56;6245529;28;20515;-72
2022/04/27 13:26:02;;;;;;;1.95;1.48;;;;;;;20.87;33.38;102252.88;6245896;28;20512;-75
2022/04/27 13:29:04;;;;;;;2.03;1.48;;;;;;;20.78;34.92;102267.75;6248287;28;20050;-71
2022/04/27 13:32:06;;;;;;;4.00;2.03;;;;;;;20.36;33.50;102259.16;6246767;28;20047;-71
2022/04/27 13:35:08;;;;;;;2.55;1.38;;;;;;;21.20;32.50;102258.41;6246401;28;20137;-71
2022/04/27 13:38:11;;;;;;;1.88;1.35;;;;;;;21.07;32.78;102259.44;6249606;28;20041;-72
2022/04/27 13:41:12;;;;;;;5.90;1.80;;;;;;;20.60;34.31;102250.38;6249434;28;20053;-71
2022/04/27 13:44:14;;;;;;;3.00;1.85;;;;;;;20.36;33.37;102250.28;6250073;28;20046;-72
2022/04/27 13:47:16;;;;;;;4.20;2.22;;;;;;;20.62;33.44;102251.13;6250069;28;20046;-72
2022/04/27 13:50:17;;;;;;;7.93;1.35;;;;;;;19.92;36.68;102254.25;6249493;28;20486;-71
2022/04/27 13:53:20;;;;;;;3.90;2.00;;;;;;;21.61;33.65;102248.28;6249745;28;20053;-72
2022/04/27 13:56:21;;;;;;;2.45;2.00;;;;;;;22.64;30.84;102246.47;6250000;28;20057;-72
2022/04/27 13:59:24;;;;;;;3.95;1.80;;;;;;;23.78;28.33;102247.69;6248744;28;20064;-71
2022/04/27 14:02:25;;;;;;;2.38;1.90;;;;;;;22.59;28.99;102252.19;6248945;28;20053;-70
2022/04/27 14:05:27;;;;;;;3.25;1.60;;;;;;;23.38;29.46;102242.13;6250243;28;20045;-71
2022/04/27 14:08:29;;;;;;;4.25;1.65;;;;;;;23.58;29.34;102245.84;6249748;28;20072;-71
2022/04/27 14:14:50;;;;;;;;;;;;;;;22.19;30.61;102241.97;6249969;28;20061;-71
2022/04/27 14:21:10;;;;;;;4.00;2.03;;;;;;;21.92;30.12;102238.75;6248656;28;20053;-71
2022/04/27 14:24:12;;;;;;;2.88;1.77;;;;;;;22.91;28.72;102243.41;6249110;28;20049;-71
2022/04/27 14:27:15;;;;;;;3.67;1.60;;;;;;;22.16;29.59;102241.34;6249132;28;20053;-71
2022/04/27 14:30:17;;;;;;;3.40;1.80;;;;;;;22.82;29.95;102236.94;6248809;28;20378;-71
2022/04/27 14:33:20;;;;;;;6.00;1.60;;;;;;;24.33;27.11;102235.81;6242768;28;20064;-71
2022/04/27 14:36:22;;;;;;;4.88;1.70;;;;;;;23.97;28.11;102233.53;6248827;28;20083;-71
2022/04/27 14:39:24;;;;;;;7.85;1.88;;;;;;;22.21;30.56;102229.31;6248042;28;20041;-71
2022/04/27 14:42:26;;;;;;;2.22;1.50;;;;;;;22.09;31.41;102226.72;6247725;28;20140;-71